sensor_id;sensor_type;location;lat;lon;timestamp;temperature;humidity
11091;DHT22;5599;52.210;21.046;2023-11-22T00:00:52;-1.10;99.90
11091;DHT22;5599;52.210;21.046;2023-11-22T00:03:22;-1.20;99.90
11091;DHT22;5599;52.210;21.046;2023-11-22T00:05:52;-1.20;99.90
11091;DHT22;5599;52.210;21.046;2023-11-22T00:08:21;-1.20;1.00
11091;DHT22;5599;52.210;21.046;2023-11-22T00:10:50;-1.10;1.00
11091;DHT22;5599;52.210;21.046;2023-11-22T00:13:19;-1.20;99.90
11091;DHT22;5599;52.210;21.046;2023-11-22T00:15:49;-1.30;24.40
11091;DHT22;5599;52.210;21.046;2023-11-22T00:18:18;-1.30;61.10
11091;DHT22;5599;52.210;21.046;2023-11-22T00:20:49;-1.30;99.90
11091;DHT22;5599;52.210;21.046;2023-11-22T00:23:18;-1.30;99.90
11091;DHT22;5599;52.210;21.046;2023-11-22T00:25:47;-1.30;35.30
11091;DHT22;5599;52.210;21.046;2023-11-22T00:28:16;-1.40;1.00
11091;DHT22;5599;52.210;21.046;2023-11-22T00:30:46;-1.40;99.90
11091;DHT22;5599;52.210;21.046;2023-11-22T00:33:16;-1.40;1.00
11091;DHT22;5599;52.210;21.046;2023-11-22T00:35:45;-1.40;99.90
11091;DHT22;5599;52.210;21.046;2023-11-22T00:38:16;-1.40;99.90
11091;DHT22;5599;52.210;21.046;2023-11-22T00:40:46;-1.40;99.90
11091;DHT22;5599;52.210;21.046;2023-11-22T00:43:15;-1.40;99.90
11091;DHT22;5599;52.210;21.046;2023-11-22T00:45:44;-1.50;1.00
11091;DHT22;5599;52.210;21.046;2023-11-22T00:48:13;-1.40;99.90
11091;DHT22;5599;52.210;21.046;2023-11-22T00:50:43;-1.50;1.00
11091;DHT22;5599;52.210;21.046;2023-11-22T00:53:12;-1.40;1.00
11091;DHT22;5599;52.210;21.046;2023-11-22T00:55:44;-1.40;99.90
11091;DHT22;5599;52.210;21.046;2023-11-22T00:58:13;-1.50;99.90
11091;DHT22;5599;52.210;21.046;2023-11-22T01:00:42;-1.50;99.90
11091;DHT22;5599;52.210;21.046;2023-11-22T01:03:14;-1.50;1.00
11091;DHT22;5599;52.210;21.046;2023-11-22T01:05:43;-1.50;1.00
11091;DHT22;5599;52.210;21.046;2023-11-22T01:08:14;-1.50;99.90
11091;DHT22;5599;52.210;21.046;2023-11-22T01:10:45;-1.60;1.00
11091;DHT22;5599;52.210;21.046;2023-11-22T01:13:14;-1.60;99.90
11091;DHT22;5599;52.210;21.046;2023-11-22T01:15:44;-1.60;1.00
11091;DHT22;5599;52.210;21.046;2023-11-22T01:18:14;-1.60;1.00
11091;DHT22;5599;52.210;21.046;2023-11-22T01:20:43;-1.60;1.00
11091;DHT22;5599;52.210;21.046;2023-11-22T01:23:13;-1.60;1.00
11091;DHT22;5599;52.210;21.046;2023-11-22T01:25:42;-1.70;99.90
11091;DHT22;5599;52.210;21.046;2023-11-22T01:28:13;-1.70;99.90
11091;DHT22;5599;52.210;21.046;2023-11-22T01:30:42;-1.70;99.90
11091;DHT22;5599;52.210;21.046;2023-11-22T01:33:13;-1.70;99.90
11091;DHT22;5599;52.210;21.046;2023-11-22T01:35:42;-1.70;99.90
11091;DHT22;5599;52.210;21.046;2023-11-22T01:38:11;-1.70;84.60
11091;DHT22;5599;52.210;21.046;2023-11-22T01:40:43;-1.70;1.00
11091;DHT22;5599;52.210;21.046;2023-11-22T01:43:16;-1.70;99.90
11091;DHT22;5599;52.210;21.046;2023-11-22T01:45:46;-1.70;99.90
11091;DHT22;5599;52.210;21.046;2023-11-22T01:48:15;-1.70;99.90
11091;DHT22;5599;52.210;21.046;2023-11-22T01:50:45;-1.70;20.30
11091;DHT22;5599;52.210;21.046;2023-11-22T01:53:15;-1.70;99.90
11091;DHT22;5599;52.210;21.046;2023-11-22T01:55:45;-1.80;99.90
11091;DHT22;5599;52.210;21.046;2023-11-22T01:58:17;-1.80;99.90
11091;DHT22;5599;52.210;21.046;2023-11-22T02:00:50;-1.80;1.00
11091;DHT22;5599;52.210;21.046;2023-11-22T02:03:20;-1.80;99.90
11091;DHT22;5599;52.210;21.046;2023-11-22T02:05:50;-1.80;1.00
11091;DHT22;5599;52.210;21.046;2023-11-22T02:08:20;-1.80;15.90
11091;DHT22;5599;52.210;21.046;2023-11-22T02:10:57;-1.80;1.00
11091;DHT22;5599;52.210;21.046;2023-11-22T02:13:31;-1.80;94.80
11091;DHT22;5599;52.210;21.046;2023-11-22T02:16:01;-1.80;99.90
11091;DHT22;5599;52.210;21.046;2023-11-22T02:18:30;-1.80;1.00
11091;DHT22;5599;52.210;21.046;2023-11-22T02:21:00;-1.80;99.90
11091;DHT22;5599;52.210;21.046;2023-11-22T02:23:31;-1.80;80.10
11091;DHT22;5599;52.210;21.046;2023-11-22T02:26:00;-1.90;90.70
11091;DHT22;5599;52.210;21.046;2023-11-22T02:28:29;-1.90;1.00
11091;DHT22;5599;52.210;21.046;2023-11-22T02:30:58;-1.90;1.00
11091;DHT22;5599;52.210;21.046;2023-11-22T02:33:27;-1.90;1.00
11091;DHT22;5599;52.210;21.046;2023-11-22T02:35:57;-1.90;1.00
11091;DHT22;5599;52.210;21.046;2023-11-22T02:38:26;-1.90;96.60
11091;DHT22;5599;52.210;21.046;2023-11-22T02:40:57;-1.90;99.90
11091;DHT22;5599;52.210;21.046;2023-11-22T02:43:26;-1.90;99.90
11091;DHT22;5599;52.210;21.046;2023-11-22T02:45:55;-1.90;84.90
11091;DHT22;5599;52.210;21.046;2023-11-22T02:48:24;-1.90;99.90
11091;DHT22;5599;52.210;21.046;2023-11-22T02:50:53;-1.90;1.00
11091;DHT22;5599;52.210;21.046;2023-11-22T02:53:22;-2.00;1.00
11091;DHT22;5599;52.210;21.046;2023-11-22T02:55:51;-2.00;1.00
11091;DHT22;5599;52.210;21.046;2023-11-22T02:58:24;-2.10;1.00
11091;DHT22;5599;52.210;21.046;2023-11-22T03:00:54;-2.10;1.00
11091;DHT22;5599;52.210;21.046;2023-11-22T03:03:24;-2.00;99.90
11091;DHT22;5599;52.210;21.046;2023-11-22T03:05:54;-2.00;99.90
11091;DHT22;5599;52.210;21.046;2023-11-22T03:08:23;-2.10;1.00
11091;DHT22;5599;52.210;21.046;2023-11-22T03:10:52;-2.20;99.90
11091;DHT22;5599;52.210;21.046;2023-11-22T03:13:21;-2.20;99.90
11091;DHT22;5599;52.210;21.046;2023-11-22T03:15:52;-2.20;99.90
11091;DHT22;5599;52.210;21.046;2023-11-22T03:18:21;-2.30;99.90
11091;DHT22;5599;52.210;21.046;2023-11-22T03:20:50;-2.30;99.90
11091;DHT22;5599;52.210;21.046;2023-11-22T03:23:22;-2.40;99.90
11091;DHT22;5599;52.210;21.046;2023-11-22T03:25:51;-2.40;1.00
11091;DHT22;5599;52.210;21.046;2023-11-22T03:28:20;-2.40;1.00
11091;DHT22;5599;52.210;21.046;2023-11-22T03:30:51;-2.50;1.00
11091;DHT22;5599;52.210;21.046;2023-11-22T03:33:20;-2.50;1.00
11091;DHT22;5599;52.210;21.046;2023-11-22T03:35:49;-2.50;1.00
11091;DHT22;5599;52.210;21.046;2023-11-22T03:38:18;-2.50;99.90
11091;DHT22;5599;52.210;21.046;2023-11-22T03:40:48;-2.50;99.90
11091;DHT22;5599;52.210;21.046;2023-11-22T03:43:17;-2.40;1.00
11091;DHT22;5599;52.210;21.046;2023-11-22T03:45:46;-2.40;99.90
11091;DHT22;5599;52.210;21.046;2023-11-22T03:48:17;-2.40;99.90
11091;DHT22;5599;52.210;21.046;2023-11-22T03:50:46;-2.40;67.90
11091;DHT22;5599;52.210;21.046;2023-11-22T03:53:15;-2.50;99.90
11091;DHT22;5599;52.210;21.046;2023-11-22T03:55:44;-2.50;1.00
11091;DHT22;5599;52.210;21.046;2023-11-22T03:58:13;-2.60;1.00
11091;DHT22;5599;52.210;21.046;2023-11-22T04:00:42;-2.50;1.00
11091;DHT22;5599;52.210;21.046;2023-11-22T04:03:11;-2.60;99.90
11091;DHT22;5599;52.210;21.046;2023-11-22T04:05:42;-2.60;1.00
11091;DHT22;5599;52.210;21.046;2023-11-22T04:08:11;-2.80;1.00
11091;DHT22;5599;52.210;21.046;2023-11-22T04:10:40;-2.80;99.90
11091;DHT22;5599;52.210;21.046;2023-11-22T04:13:10;-2.90;99.90
11091;DHT22;5599;52.210;21.046;2023-11-22T04:15:40;-3.00;99.90
11091;DHT22;5599;52.210;21.046;2023-11-22T04:18:09;-3.00;1.00
11091;DHT22;5599;52.210;21.046;2023-11-22T04:20:39;-3.10;99.90
11091;DHT22;5599;52.210;21.046;2023-11-22T04:23:10;-3.20;97.80
11091;DHT22;5599;52.210;21.046;2023-11-22T04:25:41;-3.10;99.90
11091;DHT22;5599;52.210;21.046;2023-11-22T04:28:10;-3.20;1.00
11091;DHT22;5599;52.210;21.046;2023-11-22T04:30:40;-3.20;1.00
11091;DHT22;5599;52.210;21.046;2023-11-22T04:33:09;-3.20;99.90
11091;DHT22;5599;52.210;21.046;2023-11-22T04:35:38;-3.20;1.00
11091;DHT22;5599;52.210;21.046;2023-11-22T04:38:11;-3.30;1.00
11091;DHT22;5599;52.210;21.046;2023-11-22T04:40:40;-3.30;1.00
11091;DHT22;5599;52.210;21.046;2023-11-22T04:43:10;-3.40;99.90
11091;DHT22;5599;52.210;21.046;2023-11-22T04:45:39;-3.40;1.00
11091;DHT22;5599;52.210;21.046;2023-11-22T04:48:08;-3.50;99.90
11091;DHT22;5599;52.210;21.046;2023-11-22T04:50:37;-3.50;1.00
11091;DHT22;5599;52.210;21.046;2023-11-22T04:53:06;-3.50;1.00
11091;DHT22;5599;52.210;21.046;2023-11-22T04:55:37;-3.60;1.00
11091;DHT22;5599;52.210;21.046;2023-11-22T04:58:06;-3.50;99.90
11091;DHT22;5599;52.210;21.046;2023-11-22T05:00:35;-3.60;99.90
11091;DHT22;5599;52.210;21.046;2023-11-22T05:03:05;-3.60;99.90
11091;DHT22;5599;52.210;21.046;2023-11-22T05:05:35;-3.70;99.90
11091;DHT22;5599;52.210;21.046;2023-11-22T05:08:05;-3.70;1.00
11091;DHT22;5599;52.210;21.046;2023-11-22T05:10:34;-3.70;99.90
11091;DHT22;5599;52.210;21.046;2023-11-22T05:13:04;-3.70;99.90
11091;DHT22;5599;52.210;21.046;2023-11-22T05:15:34;-3.70;1.00
11091;DHT22;5599;52.210;21.046;2023-11-22T05:18:03;-3.80;1.00
11091;DHT22;5599;52.210;21.046;2023-11-22T05:20:33;-3.70;99.90
11091;DHT22;5599;52.210;21.046;2023-11-22T05:23:02;-3.70;99.90
11091;DHT22;5599;52.210;21.046;2023-11-22T05:25:32;-3.80;1.00
11091;DHT22;5599;52.210;21.046;2023-11-22T05:28:01;-3.90;1.00
11091;DHT22;5599;52.210;21.046;2023-11-22T05:30:32;-3.90;1.00
11091;DHT22;5599;52.210;21.046;2023-11-22T05:33:01;-4.00;1.00
11091;DHT22;5599;52.210;21.046;2023-11-22T05:35:30;-4.10;7.20
11091;DHT22;5599;52.210;21.046;2023-11-22T05:38:00;-4.00;1.00
11091;DHT22;5599;52.210;21.046;2023-11-22T05:40:29;-4.00;99.90
11091;DHT22;5599;52.210;21.046;2023-11-22T05:42:59;-4.10;99.90
11091;DHT22;5599;52.210;21.046;2023-11-22T05:45:28;-4.10;99.90
11091;DHT22;5599;52.210;21.046;2023-11-22T05:47:58;-4.10;1.00
11091;DHT22;5599;52.210;21.046;2023-11-22T05:50:28;-4.00;1.00
11091;DHT22;5599;52.210;21.046;2023-11-22T05:52:57;-3.50;1.00
11091;DHT22;5599;52.210;21.046;2023-11-22T05:55:26;-4.10;1.00
11091;DHT22;5599;52.210;21.046;2023-11-22T05:57:55;-4.00;99.90
11091;DHT22;5599;52.210;21.046;2023-11-22T06:00:24;-4.00;99.90
11091;DHT22;5599;52.210;21.046;2023-11-22T06:02:54;-4.10;1.00
11091;DHT22;5599;52.210;21.046;2023-11-22T06:05:25;-4.20;1.00
11091;DHT22;5599;52.210;21.046;2023-11-22T06:07:54;-4.20;1.00
11091;DHT22;5599;52.210;21.046;2023-11-22T06:10:24;-4.20;1.00
11091;DHT22;5599;52.210;21.046;2023-11-22T06:12:54;-4.20;3.80
11091;DHT22;5599;52.210;21.046;2023-11-22T08:00:41;-0.70;99.90
11091;DHT22;5599;52.210;21.046;2023-11-22T08:30:54;0.80;99.90
11091;DHT22;5599;52.210;21.046;2023-11-22T08:35:53;0.70;1.00
11091;DHT22;5599;52.210;21.046;2023-11-22T08:40:58;1.20;1.00
11091;DHT22;5599;52.210;21.046;2023-11-22T08:43:27;1.60;99.90
11091;DHT22;5599;52.210;21.046;2023-11-22T08:45:56;1.50;99.90
11091;DHT22;5599;52.210;21.046;2023-11-22T08:48:38;1.50;1.00
11091;DHT22;5599;52.210;21.046;2023-11-22T08:51:10;1.40;1.00
11091;DHT22;5599;52.210;21.046;2023-11-22T08:53:41;1.60;1.00
11091;DHT22;5599;52.210;21.046;2023-11-22T08:56:12;1.60;1.00
11091;DHT22;5599;52.210;21.046;2023-11-22T08:58:43;1.60;1.00
11091;DHT22;5599;52.210;21.046;2023-11-22T09:01:13;1.30;1.00
11091;DHT22;5599;52.210;21.046;2023-11-22T09:03:43;1.00;1.00
11091;DHT22;5599;52.210;21.046;2023-11-22T09:06:13;0.80;99.90
11091;DHT22;5599;52.210;21.046;2023-11-22T09:08:44;0.60;99.90
11091;DHT22;5599;52.210;21.046;2023-11-22T09:11:14;0.60;99.90
11091;DHT22;5599;52.210;21.046;2023-11-22T09:13:45;0.80;99.90
11091;DHT22;5599;52.210;21.046;2023-11-22T09:16:14;0.80;1.00
11091;DHT22;5599;52.210;21.046;2023-11-22T09:18:44;1.10;1.00
11091;DHT22;5599;52.210;21.046;2023-11-22T09:21:13;1.20;1.00
11091;DHT22;5599;52.210;21.046;2023-11-22T09:23:45;1.10;99.90
11091;DHT22;5599;52.210;21.046;2023-11-22T09:26:16;1.00;1.00
11091;DHT22;5599;52.210;21.046;2023-11-22T09:28:45;0.80;1.00
11091;DHT22;5599;52.210;21.046;2023-11-22T09:31:15;1.00;99.90
11091;DHT22;5599;52.210;21.046;2023-11-22T09:33:47;1.00;1.00
11091;DHT22;5599;52.210;21.046;2023-11-22T09:36:17;0.90;99.90
11091;DHT22;5599;52.210;21.046;2023-11-22T09:38:48;1.00;1.00
11091;DHT22;5599;52.210;21.046;2023-11-22T09:41:18;1.10;1.00
11091;DHT22;5599;52.210;21.046;2023-11-22T09:43:49;1.40;1.00
11091;DHT22;5599;52.210;21.046;2023-11-22T09:46:18;1.60;1.00
11091;DHT22;5599;52.210;21.046;2023-11-22T09:48:49;1.60;1.00
11091;DHT22;5599;52.210;21.046;2023-11-22T09:51:22;1.60;1.00
11091;DHT22;5599;52.210;21.046;2023-11-22T09:53:56;1.70;1.00
11091;DHT22;5599;52.210;21.046;2023-11-22T09:56:27;1.80;1.00
11091;DHT22;5599;52.210;21.046;2023-11-22T09:58:59;1.90;1.00
11091;DHT22;5599;52.210;21.046;2023-11-22T10:01:29;1.50;1.00
11091;DHT22;5599;52.210;21.046;2023-11-22T10:04:01;1.10;1.00
11091;DHT22;5599;52.210;21.046;2023-11-22T10:06:33;1.10;1.00
11091;DHT22;5599;52.210;21.046;2023-11-22T10:09:05;1.10;99.90
11091;DHT22;5599;52.210;21.046;2023-11-22T10:11:36;1.10;1.00
11091;DHT22;5599;52.210;21.046;2023-11-22T10:14:07;1.20;1.00
11091;DHT22;5599;52.210;21.046;2023-11-22T10:16:36;1.20;1.00
11091;DHT22;5599;52.210;21.046;2023-11-22T10:19:05;1.10;1.00
11091;DHT22;5599;52.210;21.046;2023-11-22T10:21:35;1.00;1.00
11091;DHT22;5599;52.210;21.046;2023-11-22T10:24:09;1.00;1.00
11091;DHT22;5599;52.210;21.046;2023-11-22T10:26:38;1.10;1.00
11091;DHT22;5599;52.210;21.046;2023-11-22T10:29:08;1.30;1.00
11091;DHT22;5599;52.210;21.046;2023-11-22T10:31:38;1.20;1.00
11091;DHT22;5599;52.210;21.046;2023-11-22T10:34:09;1.10;1.00
11091;DHT22;5599;52.210;21.046;2023-11-22T10:36:38;1.10;1.00
11091;DHT22;5599;52.210;21.046;2023-11-22T10:39:09;1.10;1.00
11091;DHT22;5599;52.210;21.046;2023-11-22T10:41:45;1.20;1.00
11091;DHT22;5599;52.210;21.046;2023-11-22T10:44:16;1.10;1.00
11091;DHT22;5599;52.210;21.046;2023-11-22T10:46:45;1.20;1.00
11091;DHT22;5599;52.210;21.046;2023-11-22T10:49:16;1.10;1.00
11091;DHT22;5599;52.210;21.046;2023-11-22T10:51:50;1.00;1.00
11091;DHT22;5599;52.210;21.046;2023-11-22T10:54:22;0.90;1.00
11091;DHT22;5599;52.210;21.046;2023-11-22T10:56:55;0.70;1.00
11091;DHT22;5599;52.210;21.046;2023-11-22T10:59:27;1.00;1.00
11091;DHT22;5599;52.210;21.046;2023-11-22T11:02:01;1.20;1.00
11091;DHT22;5599;52.210;21.046;2023-11-22T11:04:42;1.40;99.90
11091;DHT22;5599;52.210;21.046;2023-11-22T11:07:13;1.60;1.00
11091;DHT22;5599;52.210;21.046;2023-11-22T11:09:46;1.80;1.00
11091;DHT22;5599;52.210;21.046;2023-11-22T11:12:17;2.00;1.00
11091;DHT22;5599;52.210;21.046;2023-11-22T11:14:49;2.30;99.90
11091;DHT22;5599;52.210;21.046;2023-11-22T11:17:19;2.50;1.00
11091;DHT22;5599;52.210;21.046;2023-11-22T11:19:48;2.60;1.00
11091;DHT22;5599;52.210;21.046;2023-11-22T11:22:18;2.80;99.90
11091;DHT22;5599;52.210;21.046;2023-11-22T11:24:48;2.90;99.90
11091;DHT22;5599;52.210;21.046;2023-11-22T11:27:28;3.00;1.00
11091;DHT22;5599;52.210;21.046;2023-11-22T11:29:58;3.00;1.00
11091;DHT22;5599;52.210;21.046;2023-11-22T11:32:31;3.00;1.00
11091;DHT22;5599;52.210;21.046;2023-11-22T11:35:03;2.60;1.00
11091;DHT22;5599;52.210;21.046;2023-11-22T11:37:37;2.30;1.00
11091;DHT22;5599;52.210;21.046;2023-11-22T11:40:26;1.90;1.00
11091;DHT22;5599;52.210;21.046;2023-11-22T11:42:55;1.80;1.00
11091;DHT22;5599;52.210;21.046;2023-11-22T11:45:25;1.70;1.00
11091;DHT22;5599;52.210;21.046;2023-11-22T11:47:56;1.90;1.00
11091;DHT22;5599;52.210;21.046;2023-11-22T11:50:26;2.20;1.00
11091;DHT22;5599;52.210;21.046;2023-11-22T11:52:55;2.30;1.00
11091;DHT22;5599;52.210;21.046;2023-11-22T11:55:27;2.40;1.00
11091;DHT22;5599;52.210;21.046;2023-11-22T11:57:57;2.60;1.00
11091;DHT22;5599;52.210;21.046;2023-11-22T12:00:26;2.70;1.00
11091;DHT22;5599;52.210;21.046;2023-11-22T12:02:56;2.80;1.00
11091;DHT22;5599;52.210;21.046;2023-11-22T12:05:25;2.90;1.00
11091;DHT22;5599;52.210;21.046;2023-11-22T12:07:55;3.00;1.00
11091;DHT22;5599;52.210;21.046;2023-11-22T12:10:26;2.70;1.00
11091;DHT22;5599;52.210;21.046;2023-11-22T12:12:56;2.70;1.00
11091;DHT22;5599;52.210;21.046;2023-11-22T12:15:26;2.60;45.50
11091;DHT22;5599;52.210;21.046;2023-11-22T12:17:57;2.30;1.00
11091;DHT22;5599;52.210;21.046;2023-11-22T12:20:28;2.40;6.80
11091;DHT22;5599;52.210;21.046;2023-11-22T12:22:59;2.50;99.90
11091;DHT22;5599;52.210;21.046;2023-11-22T12:25:31;2.50;1.00
11091;DHT22;5599;52.210;21.046;2023-11-22T12:28:00;2.70;1.00
11091;DHT22;5599;52.210;21.046;2023-11-22T12:30:31;2.70;1.00
11091;DHT22;5599;52.210;21.046;2023-11-22T12:33:02;2.80;1.00
11091;DHT22;5599;52.210;21.046;2023-11-22T12:35:33;3.00;1.00
11091;DHT22;5599;52.210;21.046;2023-11-22T12:38:05;3.00;30.80
11091;DHT22;5599;52.210;21.046;2023-11-22T12:40:36;3.10;1.00
11091;DHT22;5599;52.210;21.046;2023-11-22T12:43:05;3.20;1.00
11091;DHT22;5599;52.210;21.046;2023-11-22T12:45:36;3.20;99.90
11091;DHT22;5599;52.210;21.046;2023-11-22T12:48:23;3.20;57.60
11091;DHT22;5599;52.210;21.046;2023-11-22T12:50:53;3.20;1.00
11091;DHT22;5599;52.210;21.046;2023-11-22T12:53:23;3.20;1.00
11091;DHT22;5599;52.210;21.046;2023-11-22T12:55:55;3.30;1.00
11091;DHT22;5599;52.210;21.046;2023-11-22T12:58:26;3.30;1.00
11091;DHT22;5599;52.210;21.046;2023-11-22T13:00:55;3.30;1.00
11091;DHT22;5599;52.210;21.046;2023-11-22T13:03:28;3.20;1.00
11091;DHT22;5599;52.210;21.046;2023-11-22T13:05:59;3.10;1.00
11091;DHT22;5599;52.210;21.046;2023-11-22T13:08:29;3.10;1.00
11091;DHT22;5599;52.210;21.046;2023-11-22T13:11:00;3.00;1.00
11091;DHT22;5599;52.210;21.046;2023-11-22T13:13:30;3.00;1.00
11091;DHT22;5599;52.210;21.046;2023-11-22T13:16:04;3.10;1.00
11091;DHT22;5599;52.210;21.046;2023-11-22T13:18:33;3.10;1.00
11091;DHT22;5599;52.210;21.046;2023-11-22T13:21:04;3.00;1.00
11091;DHT22;5599;52.210;21.046;2023-11-22T13:23:34;2.80;99.90
11091;DHT22;5599;52.210;21.046;2023-11-22T13:26:05;2.80;1.00
11091;DHT22;5599;52.210;21.046;2023-11-22T13:28:37;2.70;1.00
11091;DHT22;5599;52.210;21.046;2023-11-22T13:31:07;2.60;99.90
11091;DHT22;5599;52.210;21.046;2023-11-22T13:33:37;2.60;1.00
11091;DHT22;5599;52.210;21.046;2023-11-22T13:36:07;2.70;1.00
11091;DHT22;5599;52.210;21.046;2023-11-22T13:38:36;2.70;1.00
11091;DHT22;5599;52.210;21.046;2023-11-22T13:41:09;2.70;1.00
11091;DHT22;5599;52.210;21.046;2023-11-22T13:43:39;2.70;1.00
11091;DHT22;5599;52.210;21.046;2023-11-22T13:46:08;2.60;1.00
11091;DHT22;5599;52.210;21.046;2023-11-22T13:48:40;2.70;1.00
11091;DHT22;5599;52.210;21.046;2023-11-22T13:51:09;2.70;99.90
11091;DHT22;5599;52.210;21.046;2023-11-22T13:53:38;2.70;99.90
11091;DHT22;5599;52.210;21.046;2023-11-22T13:56:13;2.80;99.90
11091;DHT22;5599;52.210;21.046;2023-11-22T13:58:45;2.60;99.90
11091;DHT22;5599;52.210;21.046;2023-11-22T14:01:15;2.60;99.90
11091;DHT22;5599;52.210;21.046;2023-11-22T14:03:50;2.70;1.00
11091;DHT22;5599;52.210;21.046;2023-11-22T14:06:20;2.60;1.00
11091;DHT22;5599;52.210;21.046;2023-11-22T14:08:52;2.50;99.90
11091;DHT22;5599;52.210;21.046;2023-11-22T14:11:23;2.40;99.90
11091;DHT22;5599;52.210;21.046;2023-11-22T14:13:52;2.20;99.90
11091;DHT22;5599;52.210;21.046;2023-11-22T14:16:21;2.10;99.90
11091;DHT22;5599;52.210;21.046;2023-11-22T14:18:51;2.00;99.90
11091;DHT22;5599;52.210;21.046;2023-11-22T14:21:20;1.90;99.90
11091;DHT22;5599;52.210;21.046;2023-11-22T14:23:50;1.80;99.90
11091;DHT22;5599;52.210;21.046;2023-11-22T14:26:24;1.70;1.00
11091;DHT22;5599;52.210;21.046;2023-11-22T14:28:54;1.60;99.90
11091;DHT22;5599;52.210;21.046;2023-11-22T14:31:23;1.50;99.90
11091;DHT22;5599;52.210;21.046;2023-11-22T14:33:53;1.40;99.90
11091;DHT22;5599;52.210;21.046;2023-11-22T14:36:25;1.30;99.90
11091;DHT22;5599;52.210;21.046;2023-11-22T14:38:55;1.20;99.90
11091;DHT22;5599;52.210;21.046;2023-11-22T14:41:26;1.20;99.90
11091;DHT22;5599;52.210;21.046;2023-11-22T14:43:56;1.20;99.90
11091;DHT22;5599;52.210;21.046;2023-11-22T14:46:25;1.10;99.90
11091;DHT22;5599;52.210;21.046;2023-11-22T14:48:55;1.00;99.90
11091;DHT22;5599;52.210;21.046;2023-11-22T14:51:24;1.00;99.90
11091;DHT22;5599;52.210;21.046;2023-11-22T14:53:53;1.00;99.90
11091;DHT22;5599;52.210;21.046;2023-11-22T14:56:23;1.00;99.90
11091;DHT22;5599;52.210;21.046;2023-11-22T14:58:54;0.90;99.90
11091;DHT22;5599;52.210;21.046;2023-11-22T15:01:23;0.80;99.90
11091;DHT22;5599;52.210;21.046;2023-11-22T15:03:54;0.80;99.90
11091;DHT22;5599;52.210;21.046;2023-11-22T15:06:24;0.80;99.90
11091;DHT22;5599;52.210;21.046;2023-11-22T15:08:53;0.70;68.40
11091;DHT22;5599;52.210;21.046;2023-11-22T15:11:24;0.70;99.90
11091;DHT22;5599;52.210;21.046;2023-11-22T15:13:55;0.60;99.90
11091;DHT22;5599;52.210;21.046;2023-11-22T15:16:24;0.50;99.90
11091;DHT22;5599;52.210;21.046;2023-11-22T15:18:54;0.50;99.90
11091;DHT22;5599;52.210;21.046;2023-11-22T15:21:24;0.40;99.90
11091;DHT22;5599;52.210;21.046;2023-11-22T15:23:55;0.30;99.90
11091;DHT22;5599;52.210;21.046;2023-11-22T15:26:25;0.20;99.90
11091;DHT22;5599;52.210;21.046;2023-11-22T15:28:56;0.30;1.00
11091;DHT22;5599;52.210;21.046;2023-11-22T15:31:26;0.30;99.90
11091;DHT22;5599;52.210;21.046;2023-11-22T15:33:55;0.30;1.00
11091;DHT22;5599;52.210;21.046;2023-11-22T15:36:25;0.30;99.90
11091;DHT22;5599;52.210;21.046;2023-11-22T15:38:54;0.20;1.00
11091;DHT22;5599;52.210;21.046;2023-11-22T15:41:24;0.20;1.00
11091;DHT22;5599;52.210;21.046;2023-11-22T15:43:56;0.30;1.00
11091;DHT22;5599;52.210;21.046;2023-11-22T15:46:25;0.30;1.00
11091;DHT22;5599;52.210;21.046;2023-11-22T15:48:56;0.30;1.00
11091;DHT22;5599;52.210;21.046;2023-11-22T15:51:26;0.30;99.90
11091;DHT22;5599;52.210;21.046;2023-11-22T15:53:55;0.30;1.00
11091;DHT22;5599;52.210;21.046;2023-11-22T15:56:25;0.20;99.90
11091;DHT22;5599;52.210;21.046;2023-11-22T15:58:56;0.30;99.90
11091;DHT22;5599;52.210;21.046;2023-11-22T16:01:28;0.30;99.90
11091;DHT22;5599;52.210;21.046;2023-11-22T16:03:59;0.30;1.00
11091;DHT22;5599;52.210;21.046;2023-11-22T16:06:28;0.30;1.00
11091;DHT22;5599;52.210;21.046;2023-11-22T16:08:57;0.40;1.00
11091;DHT22;5599;52.210;21.046;2023-11-22T16:11:27;0.40;1.00
11091;DHT22;5599;52.210;21.046;2023-11-22T16:13:57;0.30;99.90
11091;DHT22;5599;52.210;21.046;2023-11-22T16:16:27;0.30;1.00
11091;DHT22;5599;52.210;21.046;2023-11-22T16:18:56;0.30;1.00
11091;DHT22;5599;52.210;21.046;2023-11-22T16:21:26;0.30;1.00
11091;DHT22;5599;52.210;21.046;2023-11-22T16:23:55;0.40;1.00
11091;DHT22;5599;52.210;21.046;2023-11-22T16:26:25;0.30;1.00
11091;DHT22;5599;52.210;21.046;2023-11-22T16:28:56;0.40;1.00
11091;DHT22;5599;52.210;21.046;2023-11-22T16:31:26;0.40;1.00
11091;DHT22;5599;52.210;21.046;2023-11-22T16:33:56;0.40;1.00
11091;DHT22;5599;52.210;21.046;2023-11-22T16:36:27;0.40;1.00
11091;DHT22;5599;52.210;21.046;2023-11-22T16:38:56;0.40;1.00
11091;DHT22;5599;52.210;21.046;2023-11-22T16:41:25;0.30;1.00
11091;DHT22;5599;52.210;21.046;2023-11-22T16:43:57;0.30;1.00
11091;DHT22;5599;52.210;21.046;2023-11-22T16:46:27;0.30;1.00
11091;DHT22;5599;52.210;21.046;2023-11-22T16:48:57;0.30;1.00
11091;DHT22;5599;52.210;21.046;2023-11-22T16:51:27;0.30;1.00
11091;DHT22;5599;52.210;21.046;2023-11-22T16:53:57;0.30;1.00
11091;DHT22;5599;52.210;21.046;2023-11-22T16:56:26;0.20;1.00
11091;DHT22;5599;52.210;21.046;2023-11-22T16:58:57;0.30;1.00
11091;DHT22;5599;52.210;21.046;2023-11-22T17:01:28;0.40;1.00
11091;DHT22;5599;52.210;21.046;2023-11-22T17:03:57;0.30;1.00
11091;DHT22;5599;52.210;21.046;2023-11-22T17:06:27;0.40;1.00
11091;DHT22;5599;52.210;21.046;2023-11-22T17:08:56;0.40;1.00
11091;DHT22;5599;52.210;21.046;2023-11-22T17:11:25;0.40;1.00
11091;DHT22;5599;52.210;21.046;2023-11-22T17:13:56;0.40;1.00
11091;DHT22;5599;52.210;21.046;2023-11-22T17:16:26;0.40;1.00
11091;DHT22;5599;52.210;21.046;2023-11-22T17:18:56;0.40;1.00
11091;DHT22;5599;52.210;21.046;2023-11-22T17:21:26;0.40;1.00
11091;DHT22;5599;52.210;21.046;2023-11-22T17:23:56;0.40;1.00
11091;DHT22;5599;52.210;21.046;2023-11-22T17:26:26;0.40;1.00
11091;DHT22;5599;52.210;21.046;2023-11-22T17:28:58;0.40;1.00
11091;DHT22;5599;52.210;21.046;2023-11-22T17:31:28;0.40;1.00
11091;DHT22;5599;52.210;21.046;2023-11-22T17:33:57;0.30;1.00
11091;DHT22;5599;52.210;21.046;2023-11-22T17:36:27;0.30;1.00
11091;DHT22;5599;52.210;21.046;2023-11-22T17:38:57;0.30;1.00
11091;DHT22;5599;52.210;21.046;2023-11-22T17:41:27;0.30;1.00
11091;DHT22;5599;52.210;21.046;2023-11-22T17:43:58;0.30;1.00
11091;DHT22;5599;52.210;21.046;2023-11-22T17:46:28;0.30;1.00
11091;DHT22;5599;52.210;21.046;2023-11-22T17:49:00;0.30;1.00
11091;DHT22;5599;52.210;21.046;2023-11-22T17:51:30;0.20;1.00
11091;DHT22;5599;52.210;21.046;2023-11-22T17:54:00;0.30;1.00
11091;DHT22;5599;52.210;21.046;2023-11-22T17:56:30;0.30;1.00
11091;DHT22;5599;52.210;21.046;2023-11-22T17:59:01;0.20;1.00
11091;DHT22;5599;52.210;21.046;2023-11-22T18:01:32;0.20;1.00
11091;DHT22;5599;52.210;21.046;2023-11-22T18:04:01;0.20;1.00
11091;DHT22;5599;52.210;21.046;2023-11-22T18:06:31;0.20;1.00
11091;DHT22;5599;52.210;21.046;2023-11-22T18:09:00;0.10;75.40
11091;DHT22;5599;52.210;21.046;2023-11-22T18:11:30;0.10;1.00
11091;DHT22;5599;52.210;21.046;2023-11-22T18:14:01;0.10;79.20
11091;DHT22;5599;52.210;21.046;2023-11-22T18:16:31;0.10;1.00
11091;DHT22;5599;52.210;21.046;2023-11-22T18:19:02;0.10;80.10
11091;DHT22;5599;52.210;21.046;2023-11-22T18:21:31;0.00;64.20
11091;DHT22;5599;52.210;21.046;2023-11-22T18:24:02;0.00;99.90
11091;DHT22;5599;52.210;21.046;2023-11-22T18:26:35;-0.10;99.90